createdAt,value
2018-11-05T00:01:07.276Z,60.90
2018-11-05T00:03:34.790Z,59.97
2018-11-05T00:06:02.296Z,55.20
2018-11-05T00:08:29.803Z,55.10
2018-11-05T00:10:57.307Z,55.53
2018-11-05T00:13:24.827Z,53.00
2018-11-05T00:15:52.326Z,52.60
2018-11-05T00:18:19.863Z,52.40
2018-11-05T00:20:47.377Z,52.60
2018-11-05T00:23:14.896Z,64.83
2018-11-05T00:25:42.411Z,71.00
2018-11-05T00:28:09.915Z,87.43
2018-11-05T00:30:37.409Z,57.90
2018-11-05T00:33:04.936Z,53.63
2018-11-05T00:35:32.454Z,50.27
2018-11-05T00:37:59.971Z,51.00
2018-11-05T00:40:27.470Z,48.77
2018-11-05T00:42:54.988Z,48.90
2018-11-05T00:45:22.489Z,49.60
2018-11-05T00:47:50.216Z,49.87
2018-11-05T00:50:17.782Z,52.70
2018-11-05T00:52:45.294Z,53.33
2018-11-05T00:55:13.152Z,51.70
2018-11-05T00:57:40.667Z,50.47
2018-11-05T01:00:14.411Z,51.20
2018-11-05T01:02:42.205Z,52.27
2018-11-05T01:05:11.167Z,58.63
2018-11-05T01:07:38.968Z,58.13
2018-11-05T01:10:07.721Z,56.10
2018-11-05T01:12:35.605Z,58.57
2018-11-05T01:15:03.139Z,57.80
2018-11-05T01:17:30.651Z,56.13
2018-11-05T01:19:58.153Z,56.03
2018-11-05T01:22:25.643Z,69.80
2018-11-05T01:24:53.148Z,69.03
2018-11-05T01:27:20.648Z,79.43
2018-11-05T01:29:48.152Z,84.40
2018-11-05T01:32:15.642Z,91.03
2018-11-05T01:34:43.139Z,86.70
2018-11-05T01:37:10.701Z,82.20
2018-11-05T01:39:38.156Z,86.50
2018-11-05T01:42:05.668Z,73.77
2018-11-05T01:44:33.188Z,62.03
2018-11-05T01:47:00.699Z,55.50
2018-11-05T01:49:28.204Z,48.33
2018-11-05T01:51:55.717Z,45.67
2018-11-05T01:54:23.241Z,45.97
2018-11-05T01:56:50.756Z,45.90
2018-11-05T01:59:19.532Z,51.20
2018-11-05T02:01:47.047Z,56.33
2018-11-05T02:04:14.557Z,65.97
2018-11-05T02:06:42.069Z,75.17
